createdAt,value
2022-09-28T00:02:03.366Z,41.69
2022-09-28T00:04:31.125Z,41.77
2022-09-28T00:06:58.830Z,41.37
2022-09-28T00:09:26.808Z,41.58
2022-09-28T00:11:57.102Z,41.61
2022-09-28T00:14:25.225Z,41.73
2022-09-28T00:16:53.095Z,41.50
2022-09-28T00:19:20.828Z,41.69
2022-09-28T00:21:48.553Z,41.65
2022-09-28T00:24:16.285Z,41.61
2022-09-28T00:26:43.984Z,41.94
2022-09-28T00:29:11.694Z,41.47
2022-09-28T00:31:39.453Z,41.62
2022-09-28T00:34:07.191Z,41.90
2022-09-28T00:36:34.987Z,41.79
2022-09-28T00:39:02.922Z,41.70
2022-09-28T00:41:30.953Z,41.46
2022-09-28T00:43:58.600Z,41.73
2022-09-28T00:46:26.552Z,41.46
2022-09-28T00:48:54.215Z,41.55
2022-09-28T00:51:21.919Z,41.60
2022-09-28T00:53:49.648Z,41.65
2022-09-28T00:56:19.084Z,41.85
2022-09-28T00:58:46.759Z,41.62
2022-09-28T01:01:14.639Z,41.83
2022-09-28T01:03:45.602Z,41.79
2022-09-28T01:06:14.026Z,41.73
2022-09-28T01:08:41.717Z,41.73
2022-09-28T01:11:09.687Z,41.63
2022-09-28T01:13:37.405Z,41.71
2022-09-28T01:16:08.117Z,41.96
2022-09-28T01:18:35.899Z,41.60
2022-09-28T01:21:05.323Z,41.70
2022-09-28T01:23:33.000Z,41.70
2022-09-28T01:26:00.755Z,41.97
2022-09-28T01:28:28.667Z,41.52
2022-09-28T01:30:56.310Z,41.80
2022-09-28T01:33:24.065Z,41.86
2022-09-28T01:35:51.792Z,41.91
2022-09-28T01:38:19.429Z,41.54
2022-09-28T01:40:47.162Z,41.66
2022-09-28T01:43:15.122Z,41.65
2022-09-28T01:45:42.996Z,41.75
2022-09-28T01:48:10.707Z,41.63
2022-09-28T01:50:38.414Z,41.92
2022-09-28T01:53:06.296Z,41.77
2022-09-28T01:55:34.272Z,41.88
2022-09-28T01:58:01.968Z,41.73
2022-09-28T02:00:29.727Z,41.88
2022-09-28T02:02:57.486Z,41.64
2022-09-28T02:05:25.277Z,41.94
2022-09-28T02:07:53.903Z,41.68
2022-09-28T02:10:21.941Z,41.69
2022-09-28T02:12:49.663Z,41.93
2022-09-28T02:15:17.373Z,41.94
2022-09-28T02:17:45.095Z,41.97
2022-09-28T02:20:13.196Z,41.69
2022-09-28T02:22:43.019Z,41.70
2022-09-28T02:25:10.712Z,41.76
2022-09-28T02:27:38.403Z,41.92
2022-09-28T02:30:06.086Z,41.83
2022-09-28T02:32:33.927Z,41.88
2022-09-28T02:35:01.645Z,41.69
2022-09-28T02:37:29.351Z,41.91
2022-09-28T02:39:57.013Z,41.92
2022-09-28T02:42:25.680Z,41.88
2022-09-28T02:44:53.382Z,41.89
2022-09-28T02:47:21.945Z,41.64
2022-09-28T02:49:49.609Z,41.85
2022-09-28T02:52:17.397Z,41.63
2022-09-28T02:54:45.201Z,41.86
2022-09-28T02:57:13.099Z,41.88
2022-09-28T02:59:40.816Z,41.86
2022-09-28T03:02:08.556Z,41.72
2022-09-28T03:04:36.287Z,41.83
2022-09-28T03:07:04.169Z,41.93
2022-09-28T03:09:32.051Z,41.91
2022-09-28T03:11:59.724Z,41.82
2022-09-28T03:14:27.422Z,42.11
2022-09-28T03:16:55.134Z,41.73
2022-09-28T03:19:22.846Z,41.43
2022-09-28T03:21:50.834Z,41.91
2022-09-28T03:24:18.506Z,41.73
2022-09-28T03:26:46.401Z,41.97
2022-09-28T03:29:14.291Z,42.01
2022-09-28T03:31:42.048Z,41.99
2022-09-28T03:34:09.755Z,41.98
2022-09-28T03:36:37.438Z,41.75
2022-09-28T03:39:05.265Z,41.68
2022-09-28T03:41:33.228Z,42.10
2022-09-28T03:44:00.939Z,41.98
2022-09-28T03:46:28.624Z,41.86
2022-09-28T03:48:56.270Z,41.76
2022-09-28T03:51:24.161Z,42.01
2022-09-28T03:53:51.818Z,41.98
2022-09-28T03:56:19.490Z,42.12
2022-09-28T03:58:47.186Z,41.91
2022-09-28T04:01:17.637Z,42.11
2022-09-28T04:03:45.690Z,41.88
2022-09-28T04:06:13.431Z,41.87
2022-09-28T04:08:41.191Z,42.10
2022-09-28T04:11:08.849Z,41.85
2022-09-28T04:13:37.127Z,41.90
2022-09-28T04:16:05.182Z,41.87
2022-09-28T04:18:33.144Z,41.89
2022-09-28T04:21:03.323Z,42.12
2022-09-28T04:23:31.054Z,41.89
2022-09-28T04:25:58.784Z,42.11
2022-09-28T04:28:44.193Z,42.06
2022-09-28T04:31:11.957Z,41.95
2022-09-28T04:33:39.707Z,42.21
2022-09-28T04:36:07.514Z,42.08
2022-09-28T04:38:52.354Z,42.16
2022-09-28T04:41:22.296Z,41.96
2022-09-28T04:43:50.194Z,42.07
2022-09-28T04:49:10.479Z,42.31
2022-09-28T04:51:38.196Z,42.27
2022-09-28T04:54:05.849Z,42.06
2022-09-28T04:56:33.563Z,42.01
2022-09-28T04:59:01.222Z,42.32
2022-09-28T05:01:30.064Z,42.35
2022-09-28T05:03:57.765Z,42.18
2022-09-28T05:06:28.059Z,42.13
2022-09-28T05:08:57.552Z,42.43
2022-09-28T05:11:25.545Z,42.33
2022-09-28T05:13:53.306Z,42.31
2022-09-28T05:16:21.131Z,42.10
2022-09-28T05:18:48.957Z,42.31
2022-09-28T05:21:19.538Z,42.21
2022-09-28T05:23:47.267Z,42.41
2022-09-28T05:26:15.035Z,42.26
2022-09-28T05:28:42.785Z,42.28
2022-09-28T05:31:10.456Z,42.39
2022-09-28T05:33:38.418Z,42.38
2022-09-28T05:36:06.107Z,42.14
2022-09-28T05:38:33.833Z,42.05
2022-09-28T05:41:06.294Z,42.16
2022-09-28T05:43:34.526Z,42.12
2022-09-28T05:46:02.229Z,42.38
2022-09-28T05:48:30.248Z,42.41
2022-09-28T05:50:58.701Z,42.10
2022-09-28T05:53:26.448Z,42.30
2022-09-28T05:55:54.404Z,42.23
2022-09-28T05:58:22.286Z,42.34
2022-09-28T06:00:49.976Z,42.17
2022-09-28T06:03:17.704Z,41.94
2022-09-28T06:05:47.331Z,42.17
2022-09-28T06:08:15.052Z,42.37
2022-09-28T06:10:42.773Z,42.13
2022-09-28T06:13:10.561Z,42.08
2022-09-28T06:15:39.118Z,42.38
2022-09-28T06:18:06.871Z,42.32
2022-09-28T06:20:34.721Z,42.05
2022-09-28T06:23:02.440Z,42.43
2022-09-28T06:25:30.132Z,42.37
2022-09-28T06:27:58.025Z,42.13
2022-09-28T06:30:26.871Z,42.30
2022-09-28T06:32:55.093Z,42.11
2022-09-28T06:35:22.808Z,42.38
2022-09-28T06:37:50.566Z,42.04
2022-09-28T06:40:18.378Z,42.19
2022-09-28T06:42:46.136Z,42.08
2022-09-28T06:45:13.860Z,42.18
2022-09-28T06:47:41.921Z,42.10
2022-09-28T06:50:15.037Z,42.35
2022-09-28T06:52:42.806Z,42.43
2022-09-28T06:55:10.504Z,42.17
2022-09-28T06:57:38.166Z,42.35
2022-09-28T07:00:05.858Z,42.26
2022-09-28T07:02:33.683Z,42.42
2022-09-28T07:05:01.565Z,42.60
2022-09-28T07:07:29.615Z,42.30
2022-09-28T07:09:57.296Z,42.20
2022-09-28T07:12:25.300Z,42.44
2022-09-28T07:14:56.301Z,42.45
2022-09-28T07:17:24.130Z,42.17
2022-09-28T07:20:01.557Z,42.26
2022-09-28T07:22:41.976Z,42.21
2022-09-28T07:25:10.856Z,42.54
2022-09-28T07:27:38.564Z,42.46
2022-09-28T07:30:06.238Z,42.50
2022-09-28T07:32:37.538Z,42.36
2022-09-28T07:35:08.016Z,42.27
2022-09-28T07:37:36.111Z,42.39
2022-09-28T07:40:21.497Z,42.59
2022-09-28T07:42:49.289Z,42.38
2022-09-28T07:45:16.958Z,42.51
2022-09-28T07:47:45.923Z,42.68
2022-09-28T07:50:13.758Z,42.72
2022-09-28T07:52:43.208Z,42.55
2022-09-28T07:55:10.900Z,42.66
2022-09-28T07:57:39.721Z,42.50
2022-09-28T08:00:08.980Z,42.73
2022-09-28T08:02:36.739Z,42.75
2022-09-28T08:05:04.739Z,42.37
2022-09-28T08:07:34.619Z,42.81
2022-09-28T08:10:02.682Z,42.37
2022-09-28T08:12:30.376Z,42.71
2022-09-28T08:15:00.190Z,42.79
2022-09-28T08:17:27.877Z,42.79
2022-09-28T08:20:13.055Z,42.70
2022-09-28T08:22:40.772Z,42.90
2022-09-28T08:25:08.510Z,42.85
2022-09-28T08:27:36.270Z,42.79
2022-09-28T08:30:03.957Z,42.98
2022-09-28T08:32:32.899Z,42.68
2022-09-28T08:35:00.655Z,42.79
2022-09-28T08:37:28.322Z,42.79
2022-09-28T08:39:56.184Z,42.67
2022-09-28T08:42:23.890Z,42.66
2022-09-28T08:44:51.559Z,42.85
2022-09-28T08:47:33.117Z,42.60
2022-09-28T08:50:00.945Z,42.80
2022-09-28T08:52:28.720Z,42.70
2022-09-28T08:54:56.414Z,42.29
2022-09-28T08:57:24.221Z,42.80
2022-09-28T08:59:52.125Z,42.76
2022-09-28T09:02:19.915Z,42.83
2022-09-28T09:04:47.632Z,42.71
2022-09-28T09:07:15.321Z,42.71
2022-09-28T09:09:43.008Z,42.67
2022-09-28T09:12:11.084Z,42.65
2022-09-28T09:14:38.968Z,42.58
2022-09-28T09:17:07.419Z,42.45
2022-09-28T09:19:36.217Z,42.55
2022-09-28T09:22:05.621Z,42.15
2022-09-28T09:24:33.349Z,42.61
2022-09-28T09:27:01.732Z,42.64
2022-09-28T09:29:29.512Z,42.69
2022-09-28T09:31:58.177Z,42.55
2022-09-28T09:34:26.039Z,42.56
2022-09-28T09:36:53.883Z,42.37
2022-09-28T09:39:21.611Z,42.61
2022-09-28T09:41:49.283Z,42.43
2022-09-28T09:44:16.935Z,42.56
2022-09-28T09:46:49.907Z,42.73
2022-09-28T09:49:17.642Z,42.91
2022-09-28T09:51:45.375Z,42.72
2022-09-28T09:54:13.647Z,42.71
2022-09-28T09:56:41.381Z,42.42
2022-09-28T09:59:09.097Z,42.62
2022-09-28T10:01:36.897Z,42.67
2022-09-28T10:04:04.788Z,42.60
2022-09-28T10:06:32.491Z,42.41
2022-09-28T10:09:00.189Z,42.56
2022-09-28T10:11:27.891Z,42.42
2022-09-28T10:13:55.641Z,42.48
2022-09-28T10:16:23.416Z,42.49
2022-09-28T10:18:55.061Z,42.50
2022-09-28T10:21:23.158Z,42.60
2022-09-28T10:23:50.811Z,42.66
2022-09-28T10:26:25.309Z,42.49
2022-09-28T10:28:53.191Z,42.52
2022-09-28T10:31:20.919Z,42.51
2022-09-28T10:33:48.620Z,42.55
2022-09-28T10:36:16.752Z,42.70
2022-09-28T10:38:44.492Z,42.62
2022-09-28T10:41:12.174Z,42.85
2022-09-28T10:43:41.248Z,42.76
2022-09-28T10:46:08.959Z,42.77
2022-09-28T10:48:36.674Z,42.65
2022-09-28T10:51:04.368Z,42.58
2022-09-28T10:53:32.076Z,42.62
2022-09-28T10:55:59.820Z,42.67
2022-09-28T10:58:27.559Z,42.77
2022-09-28T11:00:55.316Z,42.66
2022-09-28T11:03:23.095Z,42.78
2022-09-28T11:05:50.804Z,42.97
2022-09-28T11:08:18.507Z,42.75
2022-09-28T11:10:46.220Z,42.64
2022-09-28T11:13:13.965Z,42.64
2022-09-28T11:15:41.681Z,42.46
2022-09-28T11:18:09.354Z,42.54
2022-09-28T11:20:37.218Z,42.87
2022-09-28T11:23:05.091Z,42.61
2022-09-28T11:25:32.756Z,42.90
2022-09-28T11:28:00.496Z,42.67
2022-09-28T11:30:28.264Z,42.87
2022-09-28T11:32:56.015Z,42.67
2022-09-28T11:35:23.904Z,42.73
2022-09-28T11:37:51.613Z,42.57
2022-09-28T11:40:19.364Z,42.48
2022-09-28T11:42:47.136Z,42.90
2022-09-28T11:45:15.067Z,42.58
2022-09-28T11:47:42.830Z,42.84
2022-09-28T11:50:10.550Z,42.71
2022-09-28T11:52:38.232Z,42.67
2022-09-28T11:55:06.036Z,42.49
2022-09-28T11:57:34.139Z,42.63
2022-09-28T12:00:01.825Z,42.70
2022-09-28T12:02:29.702Z,42.75
2022-09-28T12:04:57.443Z,42.60
2022-09-28T12:07:25.252Z,42.90
2022-09-28T12:09:52.968Z,42.61
2022-09-28T12:12:20.640Z,42.53
2022-09-28T12:14:48.330Z,42.81
2022-09-28T12:17:19.959Z,42.54
2022-09-28T12:19:48.133Z,42.79
2022-09-28T12:22:15.867Z,42.65
2022-09-28T12:24:43.531Z,42.87
2022-09-28T12:27:11.227Z,42.84
2022-09-28T12:29:38.998Z,42.59
2022-09-28T12:32:06.689Z,42.43
2022-09-28T12:34:34.401Z,42.53
2022-09-28T12:37:02.082Z,42.61
2022-09-28T12:39:46.966Z,42.85
2022-09-28T12:42:17.613Z,42.84
2022-09-28T12:44:45.327Z,42.58
2022-09-28T12:47:14.892Z,42.63
2022-09-28T12:52:30.539Z,42.84
2022-09-28T12:54:58.403Z,42.93
2022-09-28T12:57:26.325Z,43.03
2022-09-28T12:59:54.107Z,42.88
2022-09-28T13:02:21.866Z,43.19
2022-09-28T13:04:49.699Z,42.79
2022-09-28T13:07:17.540Z,42.92
2022-09-28T13:09:45.431Z,42.92
2022-09-28T13:12:13.307Z,42.72
2022-09-28T13:14:41.078Z,43.01
2022-09-28T13:17:08.886Z,42.92
2022-09-28T13:19:37.021Z,42.70
2022-09-28T13:22:05.148Z,42.63
2022-09-28T13:24:33.607Z,42.48
2022-09-28T13:27:01.977Z,42.89
2022-09-28T13:29:30.210Z,42.91
2022-09-28T13:31:58.306Z,42.80
2022-09-28T13:34:26.292Z,43.00
2022-09-28T13:36:57.103Z,42.96
2022-09-28T13:39:25.217Z,42.89
2022-09-28T13:41:54.990Z,42.89
2022-09-28T13:44:24.048Z,43.21
2022-09-28T13:46:52.010Z,42.14
2022-09-28T13:49:19.766Z,32.40
2022-09-28T13:51:47.599Z,24.73
2022-09-28T13:54:15.780Z,21.30
2022-09-28T13:56:43.962Z,19.98
2022-09-28T13:59:12.358Z,19.14
2022-09-28T14:01:40.352Z,19.19
2022-09-28T14:04:08.203Z,18.31
2022-09-28T14:06:36.334Z,18.20
2022-09-28T14:09:04.249Z,17.50
2022-09-28T14:11:32.079Z,17.63
2022-09-28T14:14:00.079Z,17.21
2022-09-28T14:16:28.047Z,17.02
2022-09-28T14:18:55.842Z,16.80
2022-09-28T14:21:23.726Z,16.66
2022-09-28T14:23:55.155Z,16.98
2022-09-28T14:26:25.474Z,17.18
2022-09-28T14:28:54.624Z,17.58
2022-09-28T14:31:22.575Z,18.72
2022-09-28T14:33:50.440Z,19.45
2022-09-28T14:36:38.301Z,19.95
2022-09-28T14:39:23.943Z,21.18
2022-09-28T14:41:52.855Z,21.99
2022-09-28T14:44:20.749Z,22.97
2022-09-28T14:46:48.602Z,23.98
2022-09-28T14:49:17.057Z,24.97
2022-09-28T14:51:44.962Z,25.70
2022-09-28T14:54:12.750Z,26.05
2022-09-28T14:56:40.593Z,26.71
2022-09-28T14:59:08.484Z,27.61
2022-09-28T15:01:36.364Z,28.56
2022-09-28T15:04:04.847Z,29.24
2022-09-28T15:06:32.750Z,29.98
2022-09-28T15:09:00.599Z,30.50
2022-09-28T15:11:28.368Z,31.18
2022-09-28T15:14:02.696Z,31.81
2022-09-28T15:16:30.509Z,32.31
2022-09-28T15:18:58.376Z,33.02
2022-09-28T15:21:26.444Z,33.10
2022-09-28T15:23:55.274Z,33.48
2022-09-28T15:26:23.102Z,33.98
2022-09-28T15:28:50.938Z,33.88
2022-09-28T15:31:18.833Z,34.43
2022-09-28T15:34:05.448Z,34.91
2022-09-28T15:36:33.528Z,34.78
2022-09-28T15:39:01.358Z,34.30
2022-09-28T15:41:29.182Z,33.05
2022-09-28T15:43:57.077Z,31.91
2022-09-28T15:46:25.836Z,29.74
2022-09-28T15:48:53.738Z,26.41
2022-09-28T15:51:22.180Z,24.27
2022-09-28T15:53:50.029Z,22.38
2022-09-28T15:56:17.933Z,20.48
2022-09-28T15:58:45.762Z,19.58
2022-09-28T16:01:13.699Z,19.59
2022-09-28T16:03:41.513Z,19.87
2022-09-28T16:06:09.306Z,20.43
2022-09-28T16:08:37.128Z,21.10
2022-09-28T16:11:05.212Z,21.63
2022-09-28T16:13:34.343Z,23.00
2022-09-28T16:16:02.229Z,23.54
2022-09-28T16:18:30.338Z,24.30
2022-09-28T16:20:58.960Z,25.54
2022-09-28T16:23:26.929Z,25.83
2022-09-28T16:25:54.749Z,26.96
2022-09-28T16:28:22.655Z,27.46
2022-09-28T16:30:50.513Z,28.40
2022-09-28T16:33:18.331Z,29.07
2022-09-28T16:35:46.276Z,29.74
2022-09-28T16:38:14.592Z,30.32
2022-09-28T16:40:43.033Z,31.14
2022-09-28T16:43:11.023Z,31.86
2022-09-28T16:45:38.842Z,32.15
2022-09-28T16:48:06.669Z,32.60
2022-09-28T16:50:34.606Z,33.32
2022-09-28T16:53:20.188Z,33.99
2022-09-28T16:55:48.119Z,34.54
2022-09-28T16:58:16.041Z,34.28
2022-09-28T17:00:45.842Z,33.87
2022-09-28T17:03:13.674Z,33.34
2022-09-28T17:05:41.594Z,32.44
2022-09-28T17:08:09.374Z,32.76
2022-09-28T17:10:55.732Z,32.76
2022-09-28T17:13:27.073Z,33.41
2022-09-28T17:15:54.968Z,33.72
2022-09-28T17:18:22.778Z,34.00
2022-09-28T17:20:50.632Z,34.28
2022-09-28T17:25:46.146Z,34.75
2022-09-28T17:28:14.185Z,32.15
2022-09-28T17:30:42.132Z,27.75
2022-09-28T17:33:10.016Z,23.60
2022-09-28T17:35:39.709Z,21.08
2022-09-28T17:38:07.638Z,19.60
2022-09-28T17:40:35.742Z,18.46
2022-09-28T17:43:05.949Z,18.46
2022-09-28T17:45:33.859Z,18.36
2022-09-28T17:48:01.803Z,18.98
2022-09-28T17:50:29.755Z,19.56
2022-09-28T17:52:59.523Z,20.31
2022-09-28T17:55:28.704Z,21.23
2022-09-28T17:57:56.608Z,22.23
2022-09-28T18:00:27.301Z,22.78
2022-09-28T18:02:55.712Z,23.48
2022-09-28T18:05:24.643Z,24.74
2022-09-28T18:07:52.355Z,25.70
2022-09-28T18:10:21.332Z,26.27
2022-09-28T18:12:49.192Z,26.60
2022-09-28T18:15:16.925Z,27.54
2022-09-28T18:17:44.602Z,28.35
2022-09-28T18:20:12.336Z,29.04
2022-09-28T18:22:40.064Z,29.77
2022-09-28T18:25:07.770Z,30.44
2022-09-28T18:27:35.631Z,31.04
2022-09-28T18:30:03.371Z,31.92
2022-09-28T18:32:31.272Z,32.40
2022-09-28T18:34:58.956Z,32.79
2022-09-28T18:37:26.684Z,33.26
2022-09-28T18:39:54.513Z,33.65
2022-09-28T18:42:22.212Z,34.24
2022-09-28T18:44:49.972Z,34.01
2022-09-28T18:47:18.529Z,34.40
2022-09-28T18:49:46.889Z,34.50
2022-09-28T18:52:14.717Z,34.92
2022-09-28T18:54:42.646Z,35.06
2022-09-28T18:57:10.431Z,35.72
2022-09-28T18:59:38.235Z,35.91
2022-09-28T19:02:06.030Z,35.70
2022-09-28T19:04:33.767Z,35.88
2022-09-28T19:07:01.454Z,36.01
2022-09-28T19:09:29.114Z,36.81
2022-09-28T19:11:56.809Z,36.64
2022-09-28T19:14:24.598Z,36.82
2022-09-28T19:16:52.316Z,37.01
2022-09-28T19:19:20.247Z,37.47
2022-09-28T19:21:48.263Z,36.98
2022-09-28T19:24:15.988Z,36.67
2022-09-28T19:26:43.723Z,36.53
2022-09-28T19:29:11.435Z,36.37
2022-09-28T19:31:39.153Z,36.03
2022-09-28T19:34:08.222Z,36.52
2022-09-28T19:36:37.019Z,36.93
2022-09-28T19:39:05.169Z,36.49
2022-09-28T19:41:44.438Z,36.70
2022-09-28T19:44:13.488Z,37.03
2022-09-28T19:46:41.218Z,36.90
2022-09-28T19:49:08.993Z,37.46
2022-09-28T19:51:38.806Z,37.37
2022-09-28T19:54:13.716Z,37.52
2022-09-28T19:56:43.080Z,37.32
2022-09-28T19:59:10.815Z,37.43
2022-09-28T20:01:38.568Z,37.81
2022-09-28T20:04:06.299Z,38.20
2022-09-28T20:06:34.028Z,38.17
2022-09-28T20:09:01.733Z,37.83
2022-09-28T20:11:31.411Z,38.24
2022-09-28T20:13:59.374Z,38.45
2022-09-28T20:16:27.059Z,38.50
2022-09-28T20:18:56.642Z,38.58
2022-09-28T20:21:26.793Z,38.67
2022-09-28T20:23:56.305Z,38.83
2022-09-28T20:26:24.037Z,38.38
2022-09-28T20:28:51.979Z,38.68
2022-09-28T20:31:20.115Z,38.45
2022-09-28T20:33:47.852Z,38.53
2022-09-28T20:36:15.821Z,38.94
2022-09-28T20:38:43.626Z,38.89
2022-09-28T20:41:11.496Z,38.79
2022-09-28T20:43:39.240Z,39.22
2022-09-28T20:46:06.963Z,38.84
2022-09-28T20:48:34.859Z,39.30
2022-09-28T20:51:03.212Z,39.00
2022-09-28T20:53:30.900Z,39.08
2022-09-28T20:55:58.624Z,39.21
2022-09-28T20:58:26.315Z,39.23
2022-09-28T21:00:54.240Z,39.51
2022-09-28T21:03:21.926Z,39.44
2022-09-28T21:05:49.667Z,39.43
2022-09-28T21:08:17.635Z,39.58
2022-09-28T21:10:45.695Z,39.55
2022-09-28T21:13:13.345Z,39.58
2022-09-28T21:15:41.092Z,39.31
2022-09-28T21:18:08.973Z,39.47
2022-09-28T21:20:36.940Z,39.59
2022-09-28T21:23:04.832Z,39.79
2022-09-28T21:25:32.546Z,40.04
2022-09-28T21:28:00.232Z,39.69
2022-09-28T21:30:28.265Z,39.73
2022-09-28T21:32:56.090Z,39.71
2022-09-28T21:38:15.510Z,39.51
2022-09-28T21:40:43.278Z,40.06
2022-09-28T21:43:10.990Z,39.83
2022-09-28T21:45:39.751Z,39.72
2022-09-28T21:48:07.461Z,40.23
2022-09-28T21:50:35.117Z,39.69
2022-09-28T21:53:03.301Z,40.11
2022-09-28T21:55:31.917Z,40.04
2022-09-28T21:57:59.639Z,39.88
2022-09-28T22:00:27.327Z,39.69
2022-09-28T22:02:55.122Z,39.86
2022-09-28T22:05:22.854Z,40.14
2022-09-28T22:07:50.568Z,40.21
2022-09-28T22:10:18.252Z,39.98
2022-09-28T22:12:46.076Z,39.90
2022-09-28T22:15:13.943Z,40.11
2022-09-28T22:17:41.651Z,40.30
2022-09-28T22:20:09.379Z,40.19
2022-09-28T22:22:37.076Z,40.20
2022-09-28T22:25:04.924Z,40.18
2022-09-28T22:27:33.055Z,40.11
2022-09-28T22:30:00.748Z,40.31
2022-09-28T22:32:28.582Z,40.27
2022-09-28T22:34:56.262Z,40.29
2022-09-28T22:37:28.010Z,40.49
2022-09-28T22:39:56.026Z,40.26
2022-09-28T22:42:23.695Z,40.58
2022-09-28T22:44:51.348Z,40.29
2022-09-28T22:47:19.012Z,40.46
2022-09-28T22:49:46.754Z,40.31
2022-09-28T22:52:14.501Z,40.92
2022-09-28T22:54:42.211Z,40.44
2022-09-28T22:57:09.900Z,40.42
2022-09-28T22:59:37.638Z,40.46
2022-09-28T23:02:05.397Z,40.50
2022-09-28T23:04:33.136Z,40.68
2022-09-28T23:07:00.792Z,40.71
2022-09-28T23:09:28.484Z,40.63
2022-09-28T23:11:56.157Z,40.52
2022-09-28T23:14:23.851Z,40.61
2022-09-28T23:16:51.513Z,40.75
2022-09-28T23:19:19.294Z,40.82
2022-09-28T23:21:47.038Z,40.92
2022-09-28T23:24:14.889Z,40.92
2022-09-28T23:26:42.622Z,40.78
2022-09-28T23:29:10.420Z,40.93
2022-09-28T23:31:38.886Z,41.09
2022-09-28T23:34:06.682Z,40.75
2022-09-28T23:36:34.372Z,40.78
2022-09-28T23:39:02.097Z,40.98
2022-09-28T23:41:29.760Z,41.00
2022-09-28T23:43:57.484Z,40.75
2022-09-28T23:46:25.833Z,40.67
2022-09-28T23:48:53.838Z,40.96
2022-09-28T23:51:21.538Z,40.94
2022-09-28T23:53:49.208Z,41.00
2022-09-28T23:56:17.206Z,40.73
2022-09-28T23:58:45.171Z,40.95
